createdAt,value
2018-05-23T00:02:10.923Z,5.50
2018-05-23T00:04:37.400Z,5.13
2018-05-23T00:07:04.442Z,5.60
2018-05-23T00:09:31.978Z,5.73
2018-05-23T00:11:58.745Z,6.00
2018-05-23T00:14:26.661Z,6.57
2018-05-23T00:16:53.861Z,5.80
2018-05-23T00:19:20.798Z,6.07
2018-05-23T00:21:48.063Z,5.27
2018-05-23T00:24:14.775Z,5.10
2018-05-23T00:26:42.903Z,5.20
2018-05-23T00:29:09.122Z,4.70
2018-05-23T00:31:35.861Z,5.60
2018-05-23T00:34:03.100Z,5.90
2018-05-23T00:36:29.328Z,5.00
2018-05-23T00:38:55.622Z,5.90
2018-05-23T00:41:21.861Z,5.63
2018-05-23T00:43:48.952Z,5.40
2018-05-23T00:46:16.089Z,5.13
2018-05-23T00:48:42.831Z,5.43
2018-05-23T00:51:09.369Z,4.90
2018-05-23T00:53:36.640Z,5.13
2018-05-23T00:56:03.212Z,4.70
2018-05-23T00:58:31.354Z,5.17
2018-05-23T01:00:58.145Z,5.20
2018-05-23T01:03:25.293Z,5.20
2018-05-23T01:05:53.470Z,4.47
2018-05-23T01:08:20.997Z,4.70
2018-05-23T01:10:47.197Z,5.07
2018-05-23T01:13:14.033Z,4.93
2018-05-23T01:15:40.800Z,5.10
2018-05-23T01:18:07.989Z,5.00
2018-05-23T01:20:35.416Z,4.90
2018-05-23T01:23:02.907Z,5.00
2018-05-23T01:25:30.495Z,5.20
2018-05-23T01:27:56.889Z,5.13
2018-05-23T01:30:24.478Z,5.20
2018-05-23T01:32:51.321Z,4.70
2018-05-23T01:35:18.166Z,4.83
2018-05-23T01:37:44.659Z,4.73
2018-05-23T01:40:12.613Z,5.47
2018-05-23T01:42:40.019Z,4.70
2018-05-23T01:45:06.729Z,5.40
2018-05-23T01:47:33.682Z,4.70
2018-05-23T01:50:00.870Z,5.07
2018-05-23T01:52:27.104Z,5.33
2018-05-23T01:54:53.538Z,4.90
2018-05-23T01:57:20.557Z,4.67
2018-05-23T01:59:46.749Z,4.30
2018-05-23T02:02:13.750Z,5.17
2018-05-23T02:04:41.126Z,4.77
2018-05-23T02:07:07.654Z,4.80
2018-05-23T02:09:35.830Z,4.90
2018-05-23T02:12:03.402Z,5.20
2018-05-23T02:14:29.661Z,4.13
2018-05-23T02:16:56.598Z,5.23
2018-05-23T02:19:23.565Z,5.00
2018-05-23T02:21:50.387Z,4.87
2018-05-23T02:24:17.863Z,5.07
2018-05-23T02:26:44.484Z,4.80
2018-05-23T02:29:11.548Z,5.40
2018-05-23T02:31:37.755Z,4.70
2018-05-23T02:34:05.420Z,5.23
2018-05-23T02:36:33.253Z,4.40
2018-05-23T02:39:00.044Z,4.77
2018-05-23T02:41:26.254Z,4.93
2018-05-23T02:43:53.226Z,6.30
2018-05-23T02:46:19.452Z,5.90
2018-05-23T02:48:46.618Z,5.10
2018-05-23T02:51:13.297Z,5.70
2018-05-23T02:53:40.877Z,5.80
2018-05-23T02:56:07.267Z,5.97
2018-05-23T02:58:34.094Z,5.43
2018-05-23T03:01:01.304Z,4.97
2018-05-23T03:03:28.095Z,5.03
2018-05-23T03:05:54.329Z,5.00
2018-05-23T03:08:21.155Z,6.13
2018-05-23T03:10:47.345Z,5.37
2018-05-23T03:13:14.240Z,5.70
2018-05-23T03:15:41.032Z,4.90
2018-05-23T03:18:07.253Z,5.40
2018-05-23T03:20:35.297Z,5.03
2018-05-23T03:23:02.392Z,5.60
2018-05-23T03:25:29.161Z,5.13
2018-05-23T03:27:55.974Z,5.33
2018-05-23T03:30:22.762Z,5.40
2018-05-23T03:32:49.497Z,5.80
2018-05-23T03:35:16.670Z,6.10
2018-05-23T03:37:43.596Z,6.77
2018-05-23T03:40:09.819Z,6.50
2018-05-23T03:42:36.528Z,6.37
2018-05-23T03:45:03.270Z,5.87
2018-05-23T03:47:30.061Z,6.00
2018-05-23T03:49:57.604Z,7.10
2018-05-23T03:52:24.838Z,7.00
2018-05-23T03:54:52.388Z,8.13
2018-05-23T03:57:19.207Z,8.43
2018-05-23T03:59:58.134Z,8.90
2018-05-23T04:02:38.112Z,9.53
2018-05-23T04:05:16.402Z,9.10
2018-05-23T04:07:44.138Z,10.37
2018-05-23T04:10:11.016Z,10.60
2018-05-23T04:12:37.467Z,10.40
2018-05-23T04:15:05.001Z,10.00
2018-05-23T04:17:31.311Z,9.80
2018-05-23T04:19:58.032Z,9.47
2018-05-23T04:22:24.991Z,8.67
2018-05-23T04:24:51.367Z,9.70
2018-05-23T04:27:17.636Z,9.13
2018-05-23T04:29:45.181Z,9.87
2018-05-23T04:32:12.471Z,9.13
2018-05-23T04:34:38.968Z,9.03
2018-05-23T04:37:06.134Z,8.30
2018-05-23T04:39:33.406Z,8.00
2018-05-23T04:42:01.045Z,8.87
2018-05-23T04:44:28.637Z,8.87
2018-05-23T04:46:55.354Z,8.93
2018-05-23T04:49:22.331Z,9.53
2018-05-23T04:51:48.536Z,9.90
2018-05-23T04:54:14.918Z,8.20
2018-05-23T04:56:42.546Z,8.90
2018-05-23T04:59:09.144Z,7.50
2018-05-23T05:01:36.172Z,7.67
2018-05-23T05:04:02.436Z,8.60
2018-05-23T05:06:29.344Z,8.47
2018-05-23T05:08:56.187Z,8.37
2018-05-23T05:11:22.645Z,8.23
2018-05-23T05:13:50.378Z,7.90
2018-05-23T05:16:17.815Z,8.50
2018-05-23T05:18:44.557Z,8.20
2018-05-23T05:21:10.749Z,7.83
2018-05-23T05:23:37.642Z,9.10
2018-05-23T05:26:03.841Z,7.77
2018-05-23T05:28:30.665Z,8.73
2018-05-23T05:30:56.897Z,7.97
2018-05-23T05:33:23.764Z,8.60
2018-05-23T05:35:50.438Z,7.80
2018-05-23T05:38:16.623Z,7.60
2018-05-23T05:40:43.459Z,7.53
2018-05-23T05:43:09.910Z,7.13
2018-05-23T05:45:37.953Z,7.00
2018-05-23T05:48:04.227Z,8.50
2018-05-23T05:50:30.381Z,6.30
2018-05-23T05:52:57.346Z,6.90
2018-05-23T05:55:23.676Z,8.10
2018-05-23T05:57:49.880Z,7.50
2018-05-23T06:00:17.320Z,7.20
2018-05-23T06:02:44.127Z,7.10
2018-05-23T06:05:10.309Z,6.50
2018-05-23T06:07:38.211Z,6.77
2018-05-23T06:10:04.980Z,7.07
2018-05-23T06:12:31.182Z,7.47
2018-05-23T06:14:58.077Z,8.10
2018-05-23T06:17:25.037Z,7.93
2018-05-23T06:19:52.596Z,6.67
2018-05-23T06:22:20.267Z,7.10
2018-05-23T06:24:46.450Z,6.67
2018-05-23T06:27:13.069Z,7.17
2018-05-23T06:29:39.314Z,7.10
2018-05-23T06:32:05.817Z,7.50
2018-05-23T06:34:33.114Z,7.23
2018-05-23T06:37:00.231Z,7.47
2018-05-23T06:39:27.299Z,8.10
2018-05-23T06:41:53.546Z,9.03
2018-05-23T06:44:20.547Z,9.63
2018-05-23T06:46:47.303Z,8.93
2018-05-23T06:49:13.524Z,9.60
2018-05-23T06:51:40.408Z,9.90
2018-05-23T06:54:07.328Z,9.77
2018-05-23T06:56:33.561Z,10.10
2018-05-23T06:59:00.066Z,9.60
2018-05-23T07:01:27.047Z,9.30
2018-05-23T07:03:53.797Z,8.43
2018-05-23T07:06:21.274Z,8.20
2018-05-23T07:08:48.252Z,8.67
2018-05-23T07:11:14.579Z,9.40
2018-05-23T07:13:40.725Z,8.67
2018-05-23T07:16:06.897Z,8.50
2018-05-23T07:18:35.054Z,9.97
2018-05-23T07:21:02.962Z,9.40
2018-05-23T07:23:36.637Z,9.03
2018-05-23T07:26:03.662Z,9.00
2018-05-23T07:28:30.776Z,8.30
2018-05-23T07:30:58.439Z,7.83
2018-05-23T07:33:24.648Z,8.03
2018-05-23T07:35:51.900Z,8.27
2018-05-23T07:38:18.112Z,8.23
2018-05-23T07:40:44.988Z,7.20
2018-05-23T07:43:11.182Z,7.17
2018-05-23T07:45:37.925Z,7.80
2018-05-23T07:48:04.191Z,7.80
2018-05-23T07:50:30.555Z,7.27
2018-05-23T07:52:57.512Z,6.57
2018-05-23T07:55:24.429Z,7.27
2018-05-23T07:57:50.621Z,6.53
2018-05-23T08:00:16.979Z,6.27
2018-05-23T08:02:44.475Z,5.90
2018-05-23T08:05:12.087Z,6.37
2018-05-23T08:07:45.931Z,6.80
2018-05-23T08:10:12.137Z,6.80
2018-05-23T08:12:38.365Z,7.73
2018-05-23T08:15:04.598Z,6.70
2018-05-23T08:17:31.078Z,6.20
2018-05-23T08:19:57.367Z,6.57
2018-05-23T08:22:24.212Z,6.00
2018-05-23T08:24:51.055Z,7.30
2018-05-23T08:27:18.555Z,8.53
2018-05-23T08:29:45.322Z,7.37
2018-05-23T08:32:11.701Z,7.00
2018-05-23T08:34:39.361Z,7.90
2018-05-23T08:37:06.315Z,8.17
2018-05-23T08:39:32.690Z,6.73
2018-05-23T08:41:59.666Z,6.50
2018-05-23T08:44:26.019Z,8.07
2018-05-23T08:46:52.437Z,6.70
2018-05-23T08:49:20.338Z,7.30
2018-05-23T08:51:47.524Z,6.93
2018-05-23T08:54:14.521Z,6.30
2018-05-23T08:56:40.856Z,6.37
2018-05-23T08:59:07.677Z,6.40
2018-05-23T09:01:34.183Z,6.80
2018-05-23T09:04:01.143Z,6.70
2018-05-23T09:06:27.512Z,7.67
2018-05-23T09:08:54.522Z,6.93
2018-05-23T09:11:20.842Z,6.13
2018-05-23T09:13:48.587Z,6.87
2018-05-23T09:16:15.357Z,7.20
2018-05-23T09:18:42.347Z,6.43
2018-05-23T09:21:09.166Z,7.20
2018-05-23T09:23:36.218Z,6.97
2018-05-23T09:26:02.593Z,6.93
2018-05-23T09:28:28.778Z,7.03
2018-05-23T09:30:54.968Z,6.90
2018-05-23T09:33:21.722Z,6.83
2018-05-23T09:35:49.278Z,7.43
2018-05-23T09:38:16.248Z,6.50
2018-05-23T09:40:42.449Z,7.00
2018-05-23T09:43:09.403Z,5.70
2018-05-23T09:45:36.367Z,6.50
2018-05-23T09:48:03.085Z,7.13
2018-05-23T09:50:31.177Z,6.17
2018-05-23T09:52:57.391Z,7.43
2018-05-23T09:55:25.345Z,6.97
2018-05-23T09:57:52.881Z,6.70
2018-05-23T10:00:25.771Z,6.20
2018-05-23T10:02:51.962Z,5.90
2018-05-23T10:05:21.857Z,6.03
2018-05-23T10:07:48.129Z,5.60
2018-05-23T10:10:14.919Z,6.40
2018-05-23T10:12:41.113Z,6.20
2018-05-23T10:15:07.286Z,6.33
2018-05-23T10:17:33.872Z,6.83
2018-05-23T10:20:01.063Z,7.57
2018-05-23T10:22:28.121Z,6.63
2018-05-23T10:24:55.298Z,7.00
2018-05-23T10:27:22.531Z,6.70
2018-05-23T10:29:49.239Z,7.80
2018-05-23T10:32:16.237Z,6.90
2018-05-23T10:34:42.537Z,7.43
2018-05-23T10:37:09.089Z,7.20
2018-05-23T10:39:36.094Z,7.77
2018-05-23T10:42:04.075Z,7.37
2018-05-23T10:44:30.920Z,7.10
2018-05-23T10:46:57.109Z,6.97
2018-05-23T10:49:23.899Z,7.03
2018-05-23T10:51:50.672Z,7.83
2018-05-23T10:54:17.466Z,7.47
2018-05-23T10:56:43.679Z,7.70
2018-05-23T10:59:11.295Z,6.47
2018-05-23T11:01:38.918Z,7.07
2018-05-23T11:04:05.114Z,7.17
2018-05-23T11:06:31.362Z,7.00
2018-05-23T11:08:58.963Z,6.40
2018-05-23T11:11:25.183Z,6.63
2018-05-23T11:13:51.445Z,6.03
2018-05-23T11:16:18.139Z,5.73
2018-05-23T11:18:45.157Z,5.70
2018-05-23T11:21:12.096Z,5.57
2018-05-23T11:23:38.361Z,5.47
2018-05-23T11:26:05.107Z,5.83
2018-05-23T11:28:31.466Z,4.67
2018-05-23T11:30:58.690Z,5.60
2018-05-23T11:33:25.197Z,5.10
2018-05-23T11:35:52.135Z,4.97
2018-05-23T11:38:19.107Z,5.30
2018-05-23T11:40:45.337Z,3.80
2018-05-23T11:43:12.215Z,4.57
2018-05-23T11:45:39.738Z,4.73
2018-05-23T11:48:06.745Z,4.93
2018-05-23T11:50:32.925Z,7.43
2018-05-23T11:52:59.117Z,4.73
2018-05-23T11:55:25.585Z,5.20
2018-05-23T11:57:53.579Z,3.90
2018-05-23T12:00:20.370Z,4.13
2018-05-23T12:02:48.137Z,5.00
2018-05-23T12:05:15.010Z,4.93
2018-05-23T12:07:41.415Z,5.83
2018-05-23T12:10:09.614Z,5.10
2018-05-23T12:12:35.847Z,4.70
2018-05-23T12:15:02.603Z,7.23
2018-05-23T12:17:28.841Z,5.43
2018-05-23T12:19:55.686Z,4.93
2018-05-23T12:22:22.022Z,5.30
2018-05-23T12:24:48.978Z,4.83
2018-05-23T12:27:15.205Z,4.87
2018-05-23T12:29:42.659Z,4.27
2018-05-23T12:32:09.595Z,4.00
2018-05-23T12:34:36.806Z,4.67
2018-05-23T12:37:03.563Z,4.30
2018-05-23T12:39:30.042Z,4.70
2018-05-23T12:41:57.948Z,4.33
2018-05-23T12:44:24.747Z,5.37
2018-05-23T12:46:51.507Z,4.20
2018-05-23T12:49:17.710Z,4.60
2018-05-23T12:51:44.881Z,4.30
2018-05-23T12:54:12.214Z,5.23
2018-05-23T12:56:39.781Z,4.77
2018-05-23T12:59:06.941Z,4.70
2018-05-23T13:01:33.763Z,4.63
2018-05-23T13:04:02.795Z,3.87
2018-05-23T13:06:30.226Z,4.47
2018-05-23T13:08:57.045Z,4.40
2018-05-23T13:11:23.308Z,5.20
2018-05-23T13:13:49.547Z,4.53
2018-05-23T13:16:16.273Z,4.17
2018-05-23T13:18:42.728Z,4.63
2018-05-23T13:21:10.333Z,4.80
2018-05-23T13:23:36.809Z,4.13
2018-05-23T13:26:03.670Z,4.33
2018-05-23T13:28:29.914Z,5.23
2018-05-23T13:30:56.158Z,4.50
2018-05-23T13:33:22.721Z,4.40
2018-05-23T13:35:50.341Z,4.27
2018-05-23T13:38:17.133Z,4.80
2018-05-23T13:40:43.901Z,4.80
2018-05-23T13:43:10.131Z,4.60
2018-05-23T13:45:37.336Z,4.90
2018-05-23T13:48:05.631Z,4.60
2018-05-23T13:50:32.423Z,4.30
2018-05-23T13:52:58.669Z,4.70
2018-05-23T13:55:25.458Z,4.90
2018-05-23T13:57:52.392Z,4.60
2018-05-23T14:00:19.441Z,5.20
2018-05-23T14:02:45.631Z,4.57
2018-05-23T14:05:12.968Z,4.80
2018-05-23T14:07:39.951Z,5.27
2018-05-23T14:10:06.158Z,5.60
2018-05-23T14:12:33.147Z,5.00
2018-05-23T14:14:59.529Z,5.03
2018-05-23T14:17:26.808Z,5.33
2018-05-23T14:19:53.614Z,5.50
2018-05-23T14:22:20.354Z,4.63
2018-05-23T14:24:46.584Z,5.20
2018-05-23T14:27:12.779Z,5.10
2018-05-23T14:29:39.426Z,5.30
2018-05-23T14:32:05.622Z,4.87
2018-05-23T14:34:33.268Z,4.47
2018-05-23T14:37:00.785Z,5.70
2018-05-23T14:39:27.048Z,4.90
2018-05-23T14:41:53.996Z,5.20
2018-05-23T14:44:21.074Z,5.30
2018-05-23T14:46:47.774Z,5.70
2018-05-23T14:49:14.738Z,5.53
2018-05-23T14:51:41.969Z,5.57
2018-05-23T14:54:09.616Z,5.70
2018-05-23T14:56:36.824Z,4.73
2018-05-23T14:59:03.044Z,5.07
2018-05-23T15:01:29.972Z,4.83
2018-05-23T15:03:56.199Z,5.60
2018-05-23T15:06:22.546Z,5.47
2018-05-23T15:08:49.579Z,5.10
2018-05-23T15:11:16.461Z,5.50
2018-05-23T15:13:43.265Z,5.80
2018-05-23T15:16:09.479Z,5.20
2018-05-23T15:18:37.015Z,5.03
2018-05-23T15:21:03.782Z,4.73
2018-05-23T15:23:31.775Z,5.07
2018-05-23T15:25:58.089Z,5.80
2018-05-23T15:28:24.675Z,5.40
2018-05-23T15:30:51.711Z,4.33
2018-05-23T15:33:18.894Z,7.17
2018-05-23T15:35:46.387Z,5.93
2018-05-23T15:38:13.104Z,5.03
2018-05-23T15:40:40.346Z,5.60
2018-05-23T15:43:07.899Z,6.03
2018-05-23T15:45:34.087Z,4.70
2018-05-23T15:48:00.900Z,5.50
2018-05-23T15:50:27.086Z,5.43
2018-05-23T15:52:53.412Z,5.60
2018-05-23T15:55:20.581Z,5.10
2018-05-23T15:57:47.549Z,4.97
2018-05-23T16:00:14.441Z,5.10
2018-05-23T16:02:41.178Z,5.17
2018-05-23T16:05:07.390Z,5.20
2018-05-23T16:07:34.219Z,5.97
2018-05-23T16:10:01.005Z,5.87
2018-05-23T16:12:27.829Z,5.53
2018-05-23T16:14:54.696Z,6.07
2018-05-23T16:17:20.888Z,6.30
2018-05-23T16:19:47.797Z,6.60
2018-05-23T16:22:15.011Z,5.80
2018-05-23T16:24:42.666Z,5.70
2018-05-23T16:27:08.837Z,5.17
2018-05-23T16:29:35.932Z,6.63
2018-05-23T16:32:02.216Z,5.83
2018-05-23T16:34:45.387Z,5.50
2018-05-23T16:37:24.520Z,7.70
2018-05-23T16:39:51.301Z,6.10
2018-05-23T16:42:17.897Z,6.53
2018-05-23T16:44:44.734Z,6.30
2018-05-23T16:47:10.966Z,5.70
2018-05-23T16:49:37.363Z,5.90
2018-05-23T16:52:04.437Z,5.60
2018-05-23T16:54:31.589Z,5.13
2018-05-23T16:56:59.230Z,5.90
2018-05-23T16:59:25.968Z,5.90
2018-05-23T17:01:52.619Z,5.30
2018-05-23T17:04:20.195Z,5.37
2018-05-23T17:06:47.181Z,5.37
2018-05-23T17:09:14.123Z,4.47
2018-05-23T17:11:41.639Z,5.13
2018-05-23T17:14:07.925Z,5.13
2018-05-23T17:16:34.167Z,4.83
2018-05-23T17:19:00.375Z,4.70
2018-05-23T17:21:26.885Z,5.10
2018-05-23T17:23:54.520Z,5.30
2018-05-23T17:26:21.141Z,5.10
2018-05-23T17:28:49.196Z,4.93
2018-05-23T17:31:15.320Z,4.27
2018-05-23T17:33:42.414Z,4.20
2018-05-23T17:36:09.427Z,4.30
2018-05-23T17:38:35.993Z,5.70
2018-05-23T17:41:03.549Z,4.83
2018-05-23T17:43:29.746Z,4.63
2018-05-23T17:45:56.015Z,4.20
2018-05-23T17:48:22.982Z,4.60
2018-05-23T17:50:50.068Z,4.37
2018-05-23T17:53:16.281Z,4.00
2018-05-23T17:55:42.753Z,3.80
2018-05-23T17:58:10.365Z,4.20
2018-05-23T18:00:37.285Z,4.20
2018-05-23T18:03:04.301Z,4.63
2018-05-23T18:05:30.522Z,4.03
2018-05-23T18:07:56.930Z,4.70
2018-05-23T18:10:25.210Z,4.90
2018-05-23T18:12:51.459Z,4.97
2018-05-23T18:15:17.655Z,4.93
2018-05-23T18:17:44.001Z,5.30
2018-05-23T18:20:11.779Z,5.30
2018-05-23T18:22:38.585Z,4.87
2018-05-23T18:25:05.624Z,4.40
2018-05-23T18:27:32.819Z,5.10
2018-05-23T18:30:00.995Z,5.23
2018-05-23T18:32:27.871Z,5.00
2018-05-23T18:34:54.163Z,5.03
2018-05-23T18:37:21.159Z,5.37
2018-05-23T18:39:48.488Z,5.20
2018-05-23T18:42:15.895Z,4.97
2018-05-23T18:44:42.939Z,4.93
2018-05-23T18:47:10.278Z,5.20
2018-05-23T18:49:37.869Z,4.87
2018-05-23T18:52:04.114Z,5.43
2018-05-23T18:54:30.883Z,5.07
2018-05-23T18:56:58.404Z,5.03
2018-05-23T18:59:25.117Z,5.77
2018-05-23T19:01:51.879Z,5.53
2018-05-23T19:04:19.099Z,4.67
2018-05-23T19:06:45.462Z,5.27
2018-05-23T19:09:11.783Z,5.00
2018-05-23T19:11:38.523Z,4.97
2018-05-23T19:14:05.110Z,4.53
2018-05-23T19:16:32.266Z,4.90
2018-05-23T19:18:59.979Z,5.50
2018-05-23T19:21:26.616Z,5.07
2018-05-23T19:23:54.345Z,4.97
2018-05-23T19:26:20.914Z,5.23
2018-05-23T19:28:47.999Z,5.37
2018-05-23T19:31:14.592Z,5.80
2018-05-23T19:33:41.456Z,5.80
2018-05-23T19:36:08.785Z,5.30
2018-05-23T19:38:35.695Z,5.70
2018-05-23T19:41:02.865Z,5.10
2018-05-23T19:43:29.086Z,5.40
2018-05-23T19:45:55.996Z,5.10
2018-05-23T19:48:23.239Z,4.73
2018-05-23T19:50:49.481Z,4.90
2018-05-23T19:53:16.721Z,5.27
2018-05-23T19:55:42.952Z,4.50
2018-05-23T19:58:10.209Z,4.83
2018-05-23T20:00:36.621Z,4.70
2018-05-23T20:03:03.636Z,4.47
2018-05-23T20:05:30.386Z,4.37
2018-05-23T20:07:57.506Z,4.57
2018-05-23T20:10:24.875Z,4.00
2018-05-23T20:12:52.155Z,4.77
2018-05-23T20:15:19.297Z,4.87
2018-05-23T20:17:46.548Z,5.10
2018-05-23T20:20:12.767Z,4.10
2018-05-23T20:22:39.659Z,3.87
2018-05-23T20:25:05.953Z,4.23
2018-05-23T20:27:32.168Z,3.90
2018-05-23T20:29:58.600Z,4.00
2018-05-23T20:32:25.461Z,4.03
2018-05-23T20:34:58.536Z,3.60
2018-05-23T20:37:25.022Z,3.50
2018-05-23T20:39:52.502Z,3.10
2018-05-23T20:42:20.166Z,3.60
2018-05-23T20:44:48.095Z,3.27
2018-05-23T20:47:14.862Z,3.07
2018-05-23T20:49:41.825Z,3.23
2018-05-23T20:52:08.058Z,2.90
2018-05-23T20:54:34.250Z,2.60
2018-05-23T20:57:01.859Z,2.97
2018-05-23T20:59:28.055Z,3.10
2018-05-23T21:01:54.247Z,2.77
2018-05-23T21:04:21.110Z,2.50
2018-05-23T21:06:48.630Z,2.70
2018-05-23T21:09:16.594Z,2.63
2018-05-23T21:11:43.165Z,2.60
2018-05-23T21:14:10.164Z,2.30
2018-05-23T21:16:37.215Z,2.83
2018-05-23T21:19:04.755Z,2.93
2018-05-23T21:21:30.941Z,3.07
2018-05-23T21:23:57.152Z,3.33
2018-05-23T21:26:23.398Z,3.33
2018-05-23T21:28:51.111Z,3.77
2018-05-23T21:31:18.878Z,3.97
2018-05-23T21:33:45.098Z,3.73
2018-05-23T21:36:12.840Z,4.60
2018-05-23T21:38:40.419Z,3.70
2018-05-23T21:41:07.437Z,3.90
2018-05-23T21:43:34.971Z,3.43
2018-05-23T21:46:01.198Z,3.30
2018-05-23T21:48:27.397Z,3.17
2018-05-23T21:50:54.190Z,3.40
2018-05-23T21:53:21.148Z,3.50
2018-05-23T21:55:48.834Z,4.37
2018-05-23T21:58:15.312Z,4.37
2018-05-23T22:00:42.306Z,3.93
2018-05-23T22:03:08.519Z,5.27
2018-05-23T22:05:35.505Z,4.33
2018-05-23T22:08:01.721Z,3.80
2018-05-23T22:10:28.600Z,4.17
2018-05-23T22:12:55.710Z,4.30
2018-05-23T22:15:21.929Z,4.40
2018-05-23T22:17:48.797Z,5.80
2018-05-23T22:20:15.838Z,5.40
2018-05-23T22:22:43.072Z,6.30
2018-05-23T22:25:09.278Z,5.93
2018-05-23T22:27:36.659Z,5.70
2018-05-23T22:30:03.014Z,6.20
2018-05-23T22:32:29.252Z,5.70
2018-05-23T22:34:57.988Z,5.33
2018-05-23T22:37:24.172Z,6.37
2018-05-23T22:39:50.386Z,4.90
2018-05-23T22:42:16.616Z,4.83
2018-05-23T22:44:42.992Z,5.20
2018-05-23T22:47:09.838Z,4.13
2018-05-23T22:49:37.370Z,4.47
2018-05-23T22:52:04.964Z,4.60
2018-05-23T22:54:31.703Z,4.13
2018-05-23T22:56:57.886Z,4.40
2018-05-23T22:59:24.663Z,4.77
2018-05-23T23:01:51.261Z,4.73
2018-05-23T23:04:18.824Z,4.40
2018-05-23T23:06:46.060Z,4.23
2018-05-23T23:09:13.301Z,4.63
2018-05-23T23:11:41.078Z,4.77
2018-05-23T23:14:08.489Z,4.83
2018-05-23T23:16:35.361Z,4.80
2018-05-23T23:19:02.904Z,4.80
2018-05-23T23:21:29.645Z,5.27
2018-05-23T23:23:55.875Z,6.00
2018-05-23T23:26:22.081Z,5.50
2018-05-23T23:28:48.313Z,5.13
2018-05-23T23:31:15.391Z,5.10
2018-05-23T23:33:41.612Z,5.40
2018-05-23T23:36:07.836Z,5.50
2018-05-23T23:38:34.097Z,5.50
2018-05-23T23:41:00.888Z,5.50
2018-05-23T23:43:28.485Z,5.80
2018-05-23T23:45:56.321Z,5.40
2018-05-23T23:48:22.505Z,5.37
2018-05-23T23:50:49.992Z,6.13
2018-05-23T23:53:17.081Z,6.13
2018-05-23T23:55:43.306Z,5.37
2018-05-23T23:58:11.042Z,6.20
